Great — TCYV6 — position and weather

sailwx.info

Track history (hours):
 
Tides and Currents Weather Stations Pressure Air Temp Water Temp Dewpoint Dewpoint Depression Visibility Wind Speed Wind Dir Waves Ship Positions

Great

Last reported at 2016-Jul-01 16:16 UTC. Time now 2016-Jul-01 17:11 UTC.
Position N 35°57' E 018°33'.

Length 186 m; draft 7.1 m.

Type: Cargo ship. MMSI: 271042241.

Date/timePositionNaut miles runAvg speedWind from/ knotsBaromVisibWave heightAir tempDewpointWater temp
2016-Jul-01 16:16N 35°57' E 018°33'1011.7
2016-Jul-01 15:25N 35°57' E 018°21'1011.6
2016-Jul-01 14:33N 35°56' E 018°08'1211.8
2016-Jul-01 13:33N 35°57' E 017°54'1212.0
2016-Jul-01 12:33N 35°57' E 017°39'1111.4
2016-Jul-01 11:33N 35°56' E 017°25'1211.5
2016-Jul-01 10:33N 35°56' E 017°11'1111.5
2016-Jul-01 09:33N 35°55' E 016°57'1111.2
2016-Jul-01 08:33N 35°55' E 016°43'1111.3
2016-Jul-01 07:33N 35°55' E 016°29'1110.8
2016-Jul-01 06:33N 35°54' E 016°16'2310.7
2016-Jul-01 04:27N 35°53' E 015°48'3310.7
2016-Jul-01 01:24N 35°53' E 015°07'910.8
2016-Jul-01 00:33N 35°53' E 014°56'9 9.2
2016-Jun-30 23:33N 35°52' E 014°45'0 0.4
2016-Jun-30 22:33N 35°53' E 014°45'0 0.0
2016-Jun-30 21:30N 35°53' E 014°45'0 0.0
2016-Jun-30 20:30N 35°53' E 014°45'0 0.1
2016-Jun-30 19:28N 35°53' E 014°45'0 0.0
2016-Jun-30 18:29N 35°53' E 014°45'0 0.0
2016-Jun-30 17:34N 35°53' E 014°45'3 2.8
2016-Jun-30 16:33N 35°55' E 014°43'1010.0
2016-Jun-30 15:33N 36°00' E 014°32'1111.0
2016-Jun-30 14:33N 36°05' E 014°20'1110.8
2016-Jun-30 13:33N 36°10' E 014°08'1110.7
2016-Jun-30 12:33N 36°14' E 013°56'1110.8
2016-Jun-30 11:33N 36°20' E 013°45'1110.6
2016-Jun-30 10:33N 36°26' E 013°34'1110.9
2016-Jun-30 09:33N 36°31' E 013°22'1111.0
2016-Jun-30 08:33N 36°37' E 013°10'1110.9
2016-Jun-30 07:32N 36°43' E 012°58'1310.5
2016-Jun-30 06:18N 36°49' E 012°44'8810.9
2016-Jun-29 22:12N 37°33' E 011°08'710.5
2016-Jun-29 21:33N 37°36' E 011°01'1110.8
2016-Jun-29 20:33N 37°38' E 010°47'1110.7
2016-Jun-29 19:33N 37°40' E 010°34'1210.6
2016-Jun-29 18:26N 37°41' E 010°19'1010.9
2016-Jun-29 17:33N 37°42' E 010°07'10 9.9
2016-Jun-29 16:29N 37°43' E 009°54'0 0.5
2016-Jun-29 15:32N 37°42' E 009°54'2 1.8
2016-Jun-29 14:32N 37°41' E 009°52'22 9.2
2016-Jun-29 12:12N 37°43' E 009°24'13711.3
2016-Jun-29 00:05N 38°16' E 006°35'18810.7
2016-Jun-28 06:32N 39°02' E 002°41'2211.1
2016-Jun-28 04:33N 39°11' E 002°16'1111.4
2016-Jun-28 03:33N 39°16' E 002°02'2311.5
2016-Jun-28 01:30N 39°25' E 001°34'79 1.6
2016-Jun-26 01:26N 39°58' E 000°02'  
2016-Jun-22 20:31N 39°56' E 000°08'5710.8
2016-Jun-22 15:14N 39°32' E 001°15'1210.8
2016-Jun-22 14:08N 39°27' E 001°29'711.2
2016-Jun-22 13:28N 39°25' E 001°38'1111.1
2016-Jun-22 12:28N 39°21' E 001°52'1010.8
2016-Jun-22 11:33N 39°17' E 002°03'1110.7
2016-Jun-22 10:32N 39°12' E 002°16'1410.6
2016-Jun-22 09:16N 39°07' E 002°32'810.7
2016-Jun-22 08:34N 39°04' E 002°41'1111.1
2016-Jun-22 07:34N 38°60' E 002°54'1211.2
2016-Jun-22 06:27N 38°58' E 003°10'1010.9
2016-Jun-22 05:32N 38°57' E 003°23'1111.2
2016-Jun-22 04:30N 38°55' E 003°37'10911.0
2016-Jun-21 18:31N 38°37' E 005°56'  
Track history (hours):
 
Tides and Currents Weather Stations Pressure Air Temp Water Temp Dewpoint Dewpoint Depression Visibility Wind Speed Wind Dir Waves Ship Positions

Great

Last reported at 2016-Jul-01 16:16 UTC. Time now 2016-Jul-01 17:11 UTC.
Position N 35°57' E 018°33'.

Length 186 m; draft 7.1 m.

Type: Cargo ship. MMSI: 271042241.

Date/timePositionNaut miles runAvg speedWind from/ knotsBaromVisibWave heightAir tempDewpointWater temp
2016-Jul-01 16:16N 35°57' E 018°33'1011.7
2016-Jul-01 15:25N 35°57' E 018°21'1011.6
2016-Jul-01 14:33N 35°56' E 018°08'1211.8
2016-Jul-01 13:33N 35°57' E 017°54'1212.0
2016-Jul-01 12:33N 35°57' E 017°39'1111.4
2016-Jul-01 11:33N 35°56' E 017°25'1211.5
2016-Jul-01 10:33N 35°56' E 017°11'1111.5
2016-Jul-01 09:33N 35°55' E 016°57'1111.2
2016-Jul-01 08:33N 35°55' E 016°43'1111.3
2016-Jul-01 07:33N 35°55' E 016°29'1110.8
2016-Jul-01 06:33N 35°54' E 016°16'2310.7
2016-Jul-01 04:27N 35°53' E 015°48'3310.7
2016-Jul-01 01:24N 35°53' E 015°07'910.8
2016-Jul-01 00:33N 35°53' E 014°56'9 9.2
2016-Jun-30 23:33N 35°52' E 014°45'0 0.4
2016-Jun-30 22:33N 35°53' E 014°45'0 0.0
2016-Jun-30 21:30N 35°53' E 014°45'0 0.0
2016-Jun-30 20:30N 35°53' E 014°45'0 0.1
2016-Jun-30 19:28N 35°53' E 014°45'0 0.0
2016-Jun-30 18:29N 35°53' E 014°45'0 0.0
2016-Jun-30 17:34N 35°53' E 014°45'3 2.8
2016-Jun-30 16:33N 35°55' E 014°43'1010.0
2016-Jun-30 15:33N 36°00' E 014°32'1111.0
2016-Jun-30 14:33N 36°05' E 014°20'1110.8
2016-Jun-30 13:33N 36°10' E 014°08'1110.7
2016-Jun-30 12:33N 36°14' E 013°56'1110.8
2016-Jun-30 11:33N 36°20' E 013°45'1110.6
2016-Jun-30 10:33N 36°26' E 013°34'1110.9
2016-Jun-30 09:33N 36°31' E 013°22'1111.0
2016-Jun-30 08:33N 36°37' E 013°10'1110.9
2016-Jun-30 07:32N 36°43' E 012°58'1310.5
2016-Jun-30 06:18N 36°49' E 012°44'8810.9
2016-Jun-29 22:12N 37°33' E 011°08'710.5
2016-Jun-29 21:33N 37°36' E 011°01'1110.8
2016-Jun-29 20:33N 37°38' E 010°47'1110.7
2016-Jun-29 19:33N 37°40' E 010°34'1210.6
2016-Jun-29 18:26N 37°41' E 010°19'1010.9
2016-Jun-29 17:33N 37°42' E 010°07'10 9.9
2016-Jun-29 16:29N 37°43' E 009°54'0 0.5
2016-Jun-29 15:32N 37°42' E 009°54'2 1.8
2016-Jun-29 14:32N 37°41' E 009°52'22 9.2
2016-Jun-29 12:12N 37°43' E 009°24'13711.3
2016-Jun-29 00:05N 38°16' E 006°35'18810.7
2016-Jun-28 06:32N 39°02' E 002°41'2211.1
2016-Jun-28 04:33N 39°11' E 002°16'1111.4
2016-Jun-28 03:33N 39°16' E 002°02'2311.5
2016-Jun-28 01:30N 39°25' E 001°34'79 1.6
2016-Jun-26 01:26N 39°58' E 000°02'  
2016-Jun-22 20:31N 39°56' E 000°08'5710.8
2016-Jun-22 15:14N 39°32' E 001°15'1210.8
2016-Jun-22 14:08N 39°27' E 001°29'711.2
2016-Jun-22 13:28N 39°25' E 001°38'1111.1
2016-Jun-22 12:28N 39°21' E 001°52'1010.8
2016-Jun-22 11:33N 39°17' E 002°03'1110.7
2016-Jun-22 10:32N 39°12' E 002°16'1410.6
2016-Jun-22 09:16N 39°07' E 002°32'810.7
2016-Jun-22 08:34N 39°04' E 002°41'1111.1
2016-Jun-22 07:34N 38°60' E 002°54'1211.2
2016-Jun-22 06:27N 38°58' E 003°10'1010.9
2016-Jun-22 05:32N 38°57' E 003°23'1111.2
2016-Jun-22 04:30N 38°55' E 003°37'10911.0
2016-Jun-21 18:31N 38°37' E 005°56'  

Dump ship's entire track history